sensor_id;sensor_type;location;lat;lon;timestamp;pressure;altitude;pressure_sealevel;temperature;humidity
8641;BME280;4358;42.100;25.222;2023-03-20T00:00:12;100577.50;;;7.87;100.00
8641;BME280;4358;42.100;25.222;2023-03-20T00:02:41;100588.00;;;7.89;100.00
8641;BME280;4358;42.100;25.222;2023-03-20T00:05:15;100586.34;;;7.86;100.00
8641;BME280;4358;42.100;25.222;2023-03-20T00:07:45;100583.91;;;7.82;100.00
8641;BME280;4358;42.100;25.222;2023-03-20T00:10:12;100585.91;;;7.77;100.00
8641;BME280;4358;42.100;25.222;2023-03-20T00:12:39;100585.09;;;7.75;100.00
8641;BME280;4358;42.100;25.222;2023-03-20T00:15:26;100578.88;;;7.76;100.00
8641;BME280;4358;42.100;25.222;2023-03-20T00:17:53;100579.34;;;7.85;100.00
8641;BME280;4358;42.100;25.222;2023-03-20T00:20:21;100572.34;;;7.84;100.00
8641;BME280;4358;42.100;25.222;2023-03-20T00:22:50;100573.22;;;7.85;100.00
8641;BME280;4358;42.100;25.222;2023-03-20T00:25:18;100568.59;;;7.90;100.00
8641;BME280;4358;42.100;25.222;2023-03-20T00:27:45;100565.09;;;7.89;100.00
8641;BME280;4358;42.100;25.222;2023-03-20T00:30:19;100568.06;;;7.82;100.00
8641;BME280;4358;42.100;25.222;2023-03-20T00:32:48;100557.38;;;7.85;100.00
8641;BME280;4358;42.100;25.222;2023-03-20T00:35:18;100557.38;;;7.85;100.00
8641;BME280;4358;42.100;25.222;2023-03-20T00:37:45;100555.66;;;7.84;100.00
8641;BME280;4358;42.100;25.222;2023-03-20T00:40:14;100555.75;;;7.81;100.00
8641;BME280;4358;42.100;25.222;2023-03-20T00:42:42;100555.00;;;7.79;100.00
8641;BME280;4358;42.100;25.222;2023-03-20T00:45:12;100552.47;;;7.76;100.00
8641;BME280;4358;42.100;25.222;2023-03-20T00:47:40;100544.03;;;7.68;100.00
8641;BME280;4358;42.100;25.222;2023-03-20T00:50:14;100544.47;;;7.58;100.00
8641;BME280;4358;42.100;25.222;2023-03-20T00:52:41;100532.00;;;7.42;100.00
8641;BME280;4358;42.100;25.222;2023-03-20T00:55:09;100529.09;;;7.28;100.00
8641;BME280;4358;42.100;25.222;2023-03-20T00:57:41;100528.50;;;7.21;100.00
8641;BME280;4358;42.100;25.222;2023-03-20T01:03:00;100521.66;;;7.17;100.00
8641;BME280;4358;42.100;25.222;2023-03-20T01:05:29;100523.50;;;7.15;100.00
8641;BME280;4358;42.100;25.222;2023-03-20T01:07:56;100519.06;;;7.15;100.00
8641;BME280;4358;42.100;25.222;2023-03-20T01:10:26;100514.78;;;7.13;100.00
8641;BME280;4358;42.100;25.222;2023-03-20T01:12:57;100513.19;;;7.09;100.00
8641;BME280;4358;42.100;25.222;2023-03-20T01:15:30;100508.84;;;7.08;100.00
8641;BME280;4358;42.100;25.222;2023-03-20T01:17:57;100517.59;;;7.08;100.00
8641;BME280;4358;42.100;25.222;2023-03-20T01:20:26;100507.97;;;7.07;100.00
8641;BME280;4358;42.100;25.222;2023-03-20T01:22:53;100509.63;;;7.10;100.00
8641;BME280;4358;42.100;25.222;2023-03-20T01:25:21;100513.91;;;7.12;100.00
8641;BME280;4358;42.100;25.222;2023-03-20T01:27:50;100497.50;;;7.06;100.00
8641;BME280;4358;42.100;25.222;2023-03-20T01:30:21;100506.19;;;7.08;100.00
8641;BME280;4358;42.100;25.222;2023-03-20T01:32:48;100511.88;;;6.99;100.00
8641;BME280;4358;42.100;25.222;2023-03-20T01:35:17;100503.69;;;6.85;100.00
8641;BME280;4358;42.100;25.222;2023-03-20T01:37:45;100501.16;;;6.81;100.00
8641;BME280;4358;42.100;25.222;2023-03-20T01:40:21;100506.59;;;6.78;100.00
8641;BME280;4358;42.100;25.222;2023-03-20T01:42:48;100509.47;;;6.72;100.00
8641;BME280;4358;42.100;25.222;2023-03-20T01:45:17;100513.28;;;6.65;100.00
8641;BME280;4358;42.100;25.222;2023-03-20T01:47:47;100509.19;;;6.58;100.00
8641;BME280;4358;42.100;25.222;2023-03-20T01:50:26;100490.56;;;6.41;100.00
8641;BME280;4358;42.100;25.222;2023-03-20T01:53:00;100523.84;;;6.22;100.00
8641;BME280;4358;42.100;25.222;2023-03-20T01:55:28;100525.72;;;5.97;100.00
8641;BME280;4358;42.100;25.222;2023-03-20T01:57:59;100530.25;;;5.68;100.00
8641;BME280;4358;42.100;25.222;2023-03-20T02:00:27;100530.81;;;5.76;100.00
8641;BME280;4358;42.100;25.222;2023-03-20T02:02:55;100532.78;;;5.71;100.00
8641;BME280;4358;42.100;25.222;2023-03-20T02:05:23;100521.72;;;5.62;100.00
8641;BME280;4358;42.100;25.222;2023-03-20T02:08:01;100525.91;;;5.44;100.00
8641;BME280;4358;42.100;25.222;2023-03-20T02:10:31;100523.09;;;5.24;100.00
8641;BME280;4358;42.100;25.222;2023-03-20T02:12:58;100514.03;;;5.07;100.00
8641;BME280;4358;42.100;25.222;2023-03-20T02:15:26;100508.78;;;5.07;100.00
8641;BME280;4358;42.100;25.222;2023-03-20T02:17:54;100516.72;;;5.06;100.00
8641;BME280;4358;42.100;25.222;2023-03-20T02:20:30;100500.50;;;4.93;100.00
8641;BME280;4358;42.100;25.222;2023-03-20T02:26:19;100515.03;;;5.03;100.00
8641;BME280;4358;42.100;25.222;2023-03-20T02:29:11;100513.94;;;5.10;100.00
8641;BME280;4358;42.100;25.222;2023-03-20T02:32:06;100516.19;;;5.21;100.00
8641;BME280;4358;42.100;25.222;2023-03-20T02:34:56;100509.19;;;5.20;100.00
8641;BME280;4358;42.100;25.222;2023-03-20T02:37:42;100514.03;;;5.07;100.00
8641;BME280;4358;42.100;25.222;2023-03-20T02:40:22;100514.53;;;4.92;100.00
8641;BME280;4358;42.100;25.222;2023-03-20T02:42:57;100516.03;;;4.75;100.00
8641;BME280;4358;42.100;25.222;2023-03-20T02:45:30;100502.13;;;4.71;100.00
8641;BME280;4358;42.100;25.222;2023-03-20T02:48:10;100501.66;;;4.60;100.00
8641;BME280;4358;42.100;25.222;2023-03-20T02:50:46;100498.91;;;4.37;100.00
8641;BME280;4358;42.100;25.222;2023-03-20T02:53:23;100506.25;;;4.25;100.00
8641;BME280;4358;42.100;25.222;2023-03-20T02:55:57;100506.75;;;4.10;100.00
8641;BME280;4358;42.100;25.222;2023-03-20T02:58:32;100497.06;;;3.83;100.00
8641;BME280;4358;42.100;25.222;2023-03-20T03:01:08;100483.38;;;3.44;100.00
8641;BME280;4358;42.100;25.222;2023-03-20T03:03:37;100484.81;;;3.54;100.00
8641;BME280;4358;42.100;25.222;2023-03-20T03:06:09;100498.41;;;3.67;100.00
8641;BME280;4358;42.100;25.222;2023-03-20T03:08:43;100502.88;;;3.65;100.00
8641;BME280;4358;42.100;25.222;2023-03-20T03:11:13;100498.81;;;3.55;100.00
8641;BME280;4358;42.100;25.222;2023-03-20T03:13:42;100480.78;;;3.42;100.00
8641;BME280;4358;42.100;25.222;2023-03-20T03:16:14;100489.38;;;3.48;100.00
8641;BME280;4358;42.100;25.222;2023-03-20T03:18:44;100485.56;;;3.28;100.00
8641;BME280;4358;42.100;25.222;2023-03-20T03:21:15;100489.91;;;3.29;100.00
8641;BME280;4358;42.100;25.222;2023-03-20T03:23:47;100493.72;;;3.18;100.00
8641;BME280;4358;42.100;25.222;2023-03-20T03:26:18;100483.59;;;3.04;100.00
8641;BME280;4358;42.100;25.222;2023-03-20T03:28:49;100488.41;;;3.19;100.00
8641;BME280;4358;42.100;25.222;2023-03-20T03:31:17;100489.91;;;3.29;100.00
8641;BME280;4358;42.100;25.222;2023-03-20T03:33:47;100493.66;;;3.19;100.00
8641;BME280;4358;42.100;25.222;2023-03-20T03:36:21;100490.88;;;3.25;100.00
8641;BME280;4358;42.100;25.222;2023-03-20T03:38:56;100482.50;;;3.44;100.00
8641;BME280;4358;42.100;25.222;2023-03-20T03:41:28;100489.03;;;3.60;100.00
8641;BME280;4358;42.100;25.222;2023-03-20T03:44:04;100486.25;;;3.64;100.00
8641;BME280;4358;42.100;25.222;2023-03-20T03:46:39;100485.38;;;3.65;100.00
8641;BME280;4358;42.100;25.222;2023-03-20T03:49:08;100486.75;;;3.77;100.00
8641;BME280;4358;42.100;25.222;2023-03-20T03:51:39;100483.19;;;3.79;100.00
8641;BME280;4358;42.100;25.222;2023-03-20T03:54:11;100484.66;;;3.88;100.00
8641;BME280;4358;42.100;25.222;2023-03-20T03:56:42;100488.09;;;3.90;100.00
8641;BME280;4358;42.100;25.222;2023-03-20T03:59:14;100489.72;;;3.94;100.00
8641;BME280;4358;42.100;25.222;2023-03-20T04:01:43;100489.59;;;3.99;100.00
8641;BME280;4358;42.100;25.222;2023-03-20T04:04:13;100489.44;;;4.03;100.00
8641;BME280;4358;42.100;25.222;2023-03-20T04:06:41;100491.88;;;4.09;100.00
8641;BME280;4358;42.100;25.222;2023-03-20T04:09:09;100479.72;;;4.07;100.00
8641;BME280;4358;42.100;25.222;2023-03-20T04:11:36;100493.44;;;4.15;100.00
8641;BME280;4358;42.100;25.222;2023-03-20T04:14:03;100499.00;;;4.06;100.00
8641;BME280;4358;42.100;25.222;2023-03-20T04:16:30;100497.78;;;3.88;100.00
8641;BME280;4358;42.100;25.222;2023-03-20T04:18:56;100496.34;;;3.78;100.00
8641;BME280;4358;42.100;25.222;2023-03-20T04:21:23;100484.69;;;3.59;100.00
8641;BME280;4358;42.100;25.222;2023-03-20T04:23:50;100493.66;;;3.19;100.00
8641;BME280;4358;42.100;25.222;2023-03-20T04:26:18;100494.00;;;3.39;100.00
8641;BME280;4358;42.100;25.222;2023-03-20T04:28:45;100493.63;;;3.52;100.00
8641;BME280;4358;42.100;25.222;2023-03-20T04:31:12;100489.09;;;3.57;100.00
8641;BME280;4358;42.100;25.222;2023-03-20T04:33:39;100497.84;;;3.57;100.00
8641;BME280;4358;42.100;25.222;2023-03-20T04:36:07;100496.91;;;3.60;100.00
8641;BME280;4358;42.100;25.222;2023-03-20T04:38:34;100498.50;;;3.34;100.00
8641;BME280;4358;42.100;25.222;2023-03-20T04:41:01;100499.84;;;3.18;100.00
8641;BME280;4358;42.100;25.222;2023-03-20T04:43:29;100509.38;;;3.21;100.00
8641;BME280;4358;42.100;25.222;2023-03-20T04:45:56;100511.56;;;3.36;100.00
8641;BME280;4358;42.100;25.222;2023-03-20T04:48:23;100522.31;;;3.27;100.00
8641;BME280;4358;42.100;25.222;2023-03-20T04:50:52;100505.00;;;3.20;100.00
8641;BME280;4358;42.100;25.222;2023-03-20T04:53:19;100521.28;;;3.32;100.00
8641;BME280;4358;42.100;25.222;2023-03-20T04:55:45;100521.63;;;3.20;100.00
8641;BME280;4358;42.100;25.222;2023-03-20T04:58:13;100523.50;;;3.15;100.00
8641;BME280;4358;42.100;25.222;2023-03-20T05:00:42;100517.81;;;3.32;100.00
8641;BME280;4358;42.100;25.222;2023-03-20T05:03:09;100528.09;;;3.39;100.00
8641;BME280;4358;42.100;25.222;2023-03-20T05:05:36;100516.59;;;3.44;100.00
8641;BME280;4358;42.100;25.222;2023-03-20T05:08:03;100517.34;;;3.49;100.00
8641;BME280;4358;42.100;25.222;2023-03-20T05:10:30;100523.94;;;3.62;100.00
8641;BME280;4358;42.100;25.222;2023-03-20T05:12:57;100525.03;;;3.55;100.00
8641;BME280;4358;42.100;25.222;2023-03-20T05:15:24;100523.84;;;3.66;100.00
8641;BME280;4358;42.100;25.222;2023-03-20T05:17:52;100514.69;;;3.79;100.00
8641;BME280;4358;42.100;25.222;2023-03-20T05:20:19;100521.41;;;3.88;100.00
8641;BME280;4358;42.100;25.222;2023-03-20T05:22:48;100515.09;;;3.95;100.00
8641;BME280;4358;42.100;25.222;2023-03-20T05:25:15;100513.03;;;4.05;100.00
8641;BME280;4358;42.100;25.222;2023-03-20T05:27:43;100517.34;;;4.07;100.00
8641;BME280;4358;42.100;25.222;2023-03-20T05:30:10;100515.53;;;4.09;100.00
8641;BME280;4358;42.100;25.222;2023-03-20T05:32:37;100522.13;;;4.22;100.00
8641;BME280;4358;42.100;25.222;2023-03-20T05:35:08;100520.75;;;4.39;100.00
8641;BME280;4358;42.100;25.222;2023-03-20T05:37:36;100527.31;;;4.52;100.00
8641;BME280;4358;42.100;25.222;2023-03-20T05:40:04;100525.91;;;4.68;100.00
8641;BME280;4358;42.100;25.222;2023-03-20T05:42:31;100518.53;;;4.79;100.00
8641;BME280;4358;42.100;25.222;2023-03-20T05:44:58;100524.13;;;4.95;100.00
8641;BME280;4358;42.100;25.222;2023-03-20T05:47:25;100520.09;;;5.09;100.00
8641;BME280;4358;42.100;25.222;2023-03-20T05:49:52;100526.38;;;5.30;100.00
8641;BME280;4358;42.100;25.222;2023-03-20T05:52:20;100516.16;;;5.46;100.00
8641;BME280;4358;42.100;25.222;2023-03-20T05:54:46;100527.97;;;5.59;100.00
8641;BME280;4358;42.100;25.222;2023-03-20T05:57:14;100524.66;;;5.77;100.00
8641;BME280;4358;42.100;25.222;2023-03-20T05:59:42;100529.38;;;5.92;100.00
8641;BME280;4358;42.100;25.222;2023-03-20T06:02:09;100521.81;;;6.07;100.00
8641;BME280;4358;42.100;25.222;2023-03-20T06:04:36;100520.53;;;6.17;100.00
8641;BME280;4358;42.100;25.222;2023-03-20T06:07:04;100525.97;;;6.34;100.00
8641;BME280;4358;42.100;25.222;2023-03-20T06:09:32;100519.06;;;6.53;100.00
8641;BME280;4358;42.100;25.222;2023-03-20T06:11:59;100522.66;;;6.72;100.00
8641;BME280;4358;42.100;25.222;2023-03-20T06:14:26;100517.41;;;6.93;100.00
8641;BME280;4358;42.100;25.222;2023-03-20T06:16:52;100511.47;;;7.08;100.00
8641;BME280;4358;42.100;25.222;2023-03-20T06:19:21;100513.84;;;7.14;100.00
8641;BME280;4358;42.100;25.222;2023-03-20T06:21:49;100509.81;;;7.26;100.00
8641;BME280;4358;42.100;25.222;2023-03-20T06:24:19;100520.84;;;7.35;100.00
8641;BME280;4358;42.100;25.222;2023-03-20T06:26:47;100519.72;;;7.59;100.00
8641;BME280;4358;42.100;25.222;2023-03-20T06:29:14;100515.19;;;7.82;100.00
8641;BME280;4358;42.100;25.222;2023-03-20T06:31:41;100520.56;;;7.99;100.00
8641;BME280;4358;42.100;25.222;2023-03-20T06:34:07;100521.22;;;8.04;100.00
8641;BME280;4358;42.100;25.222;2023-03-20T06:36:34;100522.97;;;8.22;100.00
8641;BME280;4358;42.100;25.222;2023-03-20T06:39:02;100518.47;;;8.43;100.00
8641;BME280;4358;42.100;25.222;2023-03-20T06:41:29;100517.66;;;8.60;100.00
8641;BME280;4358;42.100;25.222;2023-03-20T06:43:57;100517.47;;;8.81;100.00
8641;BME280;4358;42.100;25.222;2023-03-20T06:46:24;100521.91;;;8.98;100.00
8641;BME280;4358;42.100;25.222;2023-03-20T06:48:51;100519.09;;;9.18;100.00
8641;BME280;4358;42.100;25.222;2023-03-20T06:51:18;100522.19;;;9.26;100.00
8641;BME280;4358;42.100;25.222;2023-03-20T06:53:45;100521.50;;;9.40;100.00
8641;BME280;4358;42.100;25.222;2023-03-20T06:56:12;100518.03;;;9.55;100.00
8641;BME280;4358;42.100;25.222;2023-03-20T06:58:39;100520.97;;;9.66;100.00
8641;BME280;4358;42.100;25.222;2023-03-20T07:01:11;100524.34;;;9.86;100.00
8641;BME280;4358;42.100;25.222;2023-03-20T07:03:39;100510.69;;;9.93;100.00
8641;BME280;4358;42.100;25.222;2023-03-20T07:06:07;100519.00;;;10.03;100.00
8641;BME280;4358;42.100;25.222;2023-03-20T07:08:36;100517.47;;;10.14;100.00
8641;BME280;4358;42.100;25.222;2023-03-20T07:11:03;100518.25;;;10.16;100.00
8641;BME280;4358;42.100;25.222;2023-03-20T07:13:30;100513.66;;;10.36;100.00
8641;BME280;4358;42.100;25.222;2023-03-20T07:15:59;100512.59;;;10.54;100.00
8641;BME280;4358;42.100;25.222;2023-03-20T07:18:28;100505.22;;;10.59;100.00
8641;BME280;4358;42.100;25.222;2023-03-20T07:20:58;100506.63;;;10.80;100.00
8641;BME280;4358;42.100;25.222;2023-03-20T07:23:26;100501.44;;;10.63;100.00
8641;BME280;4358;42.100;25.222;2023-03-20T07:25:53;100500.50;;;10.64;100.00
8641;BME280;4358;42.100;25.222;2023-03-20T07:28:20;100500.19;;;10.84;100.00
8641;BME280;4358;42.100;25.222;2023-03-20T07:30:47;100497.81;;;10.80;100.00
8641;BME280;4358;42.100;25.222;2023-03-20T07:33:14;100495.41;;;11.05;100.00
8641;BME280;4358;42.100;25.222;2023-03-20T07:35:42;100496.47;;;11.02;100.00
8641;BME280;4358;42.100;25.222;2023-03-20T07:38:09;100490.88;;;11.07;100.00
8641;BME280;4358;42.100;25.222;2023-03-20T07:40:36;100491.16;;;11.02;100.00
8641;BME280;4358;42.100;25.222;2023-03-20T07:43:03;100488.66;;;10.99;100.00
8641;BME280;4358;42.100;25.222;2023-03-20T07:45:30;100493.75;;;11.18;100.00
8641;BME280;4358;42.100;25.222;2023-03-20T07:47:57;100497.47;;;11.44;100.00
8641;BME280;4358;42.100;25.222;2023-03-20T07:50:24;100493.31;;;11.68;100.00
8641;BME280;4358;42.100;25.222;2023-03-20T07:52:52;100494.88;;;11.86;100.00
8641;BME280;4358;42.100;25.222;2023-03-20T07:55:19;100494.75;;;12.02;100.00
8641;BME280;4358;42.100;25.222;2023-03-20T07:57:47;100502.22;;;12.10;100.00
8641;BME280;4358;42.100;25.222;2023-03-20T08:00:14;100490.88;;;12.35;100.00
8641;BME280;4358;42.100;25.222;2023-03-20T08:02:41;100491.28;;;12.55;100.00
8641;BME280;4358;42.100;25.222;2023-03-20T08:05:09;100481.59;;;12.67;100.00
8641;BME280;4358;42.100;25.222;2023-03-20T08:07:36;100475.03;;;12.72;100.00
8641;BME280;4358;42.100;25.222;2023-03-20T08:10:05;100480.81;;;12.79;100.00
8641;BME280;4358;42.100;25.222;2023-03-20T08:12:32;100477.88;;;13.09;100.00
8641;BME280;4358;42.100;25.222;2023-03-20T08:14:59;100467.91;;;13.25;100.00
8641;BME280;4358;42.100;25.222;2023-03-20T08:17:25;100473.88;;;13.41;99.50
8641;BME280;4358;42.100;25.222;2023-03-20T08:19:52;100472.59;;;13.47;97.77
8641;BME280;4358;42.100;25.222;2023-03-20T08:22:20;100469.19;;;13.57;96.77
8641;BME280;4358;42.100;25.222;2023-03-20T08:24:46;100472.81;;;13.56;95.94
8641;BME280;4358;42.100;25.222;2023-03-20T08:27:15;100475.28;;;13.60;95.27
8641;BME280;4358;42.100;25.222;2023-03-20T08:29:42;100469.84;;;13.48;96.12
8641;BME280;4358;42.100;25.222;2023-03-20T08:32:09;100473.66;;;13.57;96.31
8641;BME280;4358;42.100;25.222;2023-03-20T08:34:36;100468.31;;;13.57;95.55
8641;BME280;4358;42.100;25.222;2023-03-20T08:37:03;100472.38;;;13.75;93.43
8641;BME280;4358;42.100;25.222;2023-03-20T08:39:30;100470.09;;;13.82;93.94
8641;BME280;4358;42.100;25.222;2023-03-20T08:41:57;100467.41;;;13.94;91.75
8641;BME280;4358;42.100;25.222;2023-03-20T08:44:25;100467.59;;;14.04;90.46
8641;BME280;4358;42.100;25.222;2023-03-20T08:46:52;100459.84;;;14.25;89.37
8641;BME280;4358;42.100;25.222;2023-03-20T08:49:19;100463.59;;;14.59;87.93
8641;BME280;4358;42.100;25.222;2023-03-20T08:51:46;100463.13;;;14.65;86.59
8641;BME280;4358;42.100;25.222;2023-03-20T08:54:13;100463.06;;;14.77;86.04
8641;BME280;4358;42.100;25.222;2023-03-20T08:56:43;100459.47;;;14.90;84.52
8641;BME280;4358;42.100;25.222;2023-03-20T08:59:10;100449.91;;;15.09;82.76
8641;BME280;4358;42.100;25.222;2023-03-20T09:01:38;100466.38;;;15.27;80.75
8641;BME280;4358;42.100;25.222;2023-03-20T09:04:05;100458.69;;;15.34;80.88
8641;BME280;4358;42.100;25.222;2023-03-20T09:06:35;100454.63;;;15.52;80.36
8641;BME280;4358;42.100;25.222;2023-03-20T09:09:02;100454.16;;;15.58;78.68
8641;BME280;4358;42.100;25.222;2023-03-20T09:11:29;100450.00;;;15.65;78.24
8641;BME280;4358;42.100;25.222;2023-03-20T09:13:57;100453.66;;;15.75;78.40
8641;BME280;4358;42.100;25.222;2023-03-20T09:16:24;100453.91;;;15.83;78.53
8641;BME280;4358;42.100;25.222;2023-03-20T09:18:52;100456.69;;;15.93;77.36
8641;BME280;4358;42.100;25.222;2023-03-20T09:21:19;100457.53;;;15.93;76.41
8641;BME280;4358;42.100;25.222;2023-03-20T09:23:46;100450.25;;;15.95;75.90
8641;BME280;4358;42.100;25.222;2023-03-20T09:26:13;100441.19;;;16.07;76.37
8641;BME280;4358;42.100;25.222;2023-03-20T09:28:40;100439.00;;;16.13;75.37
8641;BME280;4358;42.100;25.222;2023-03-20T09:31:07;100427.56;;;16.22;74.56
8641;BME280;4358;42.100;25.222;2023-03-20T09:33:34;100428.88;;;16.27;74.92
8641;BME280;4358;42.100;25.222;2023-03-20T09:36:03;100427.47;;;16.44;73.23
8641;BME280;4358;42.100;25.222;2023-03-20T09:38:30;100426.97;;;16.50;72.27
8641;BME280;4358;42.100;25.222;2023-03-20T09:40:59;100421.03;;;16.78;71.01
8641;BME280;4358;42.100;25.222;2023-03-20T09:43:42;100419.16;;;16.90;70.34
8641;BME280;4358;42.100;25.222;2023-03-20T09:46:20;100412.78;;;17.12;68.68
8641;BME280;4358;42.100;25.222;2023-03-20T09:48:56;100411.28;;;17.19;68.04
8641;BME280;4358;42.100;25.222;2023-03-20T09:51:30;100404.97;;;17.29;66.86
8641;BME280;4358;42.100;25.222;2023-03-20T09:54:05;100403.38;;;17.48;65.61
8641;BME280;4358;42.100;25.222;2023-03-20T09:56:33;100402.75;;;17.65;64.31
8641;BME280;4358;42.100;25.222;2023-03-20T09:59:01;100402.97;;;17.83;63.60
8641;BME280;4358;42.100;25.222;2023-03-20T10:01:42;100387.75;;;17.93;62.24
8641;BME280;4358;42.100;25.222;2023-03-20T10:04:11;100392.81;;;17.96;61.57
8641;BME280;4358;42.100;25.222;2023-03-20T10:06:40;100382.25;;;17.94;62.13
8641;BME280;4358;42.100;25.222;2023-03-20T10:09:14;100381.66;;;17.91;62.76
8641;BME280;4358;42.100;25.222;2023-03-20T10:11:53;100368.75;;;17.75;63.24
8641;BME280;4358;42.100;25.222;2023-03-20T10:14:30;100365.28;;;17.94;62.50
8641;BME280;4358;42.100;25.222;2023-03-20T10:17:18;100362.84;;;17.81;62.63
8641;BME280;4358;42.100;25.222;2023-03-20T10:19:50;100357.53;;;17.60;62.46
8641;BME280;4358;42.100;25.222;2023-03-20T10:22:22;100359.59;;;17.47;62.21
8641;BME280;4358;42.100;25.222;2023-03-20T10:24:54;100364.97;;;17.47;61.95
8641;BME280;4358;42.100;25.222;2023-03-20T10:27:23;100362.53;;;17.44;62.66
8641;BME280;4358;42.100;25.222;2023-03-20T10:29:57;100353.41;;;17.56;61.60
8641;BME280;4358;42.100;25.222;2023-03-20T10:32:29;100351.25;;;17.81;61.15
8641;BME280;4358;42.100;25.222;2023-03-20T10:35:16;100340.13;;;17.95;59.83
8641;BME280;4358;42.100;25.222;2023-03-20T10:37:57;100341.13;;;18.03;60.11
8641;BME280;4358;42.100;25.222;2023-03-20T10:40:28;100335.47;;;18.35;58.77
8641;BME280;4358;42.100;25.222;2023-03-20T10:43:00;100325.00;;;18.32;57.58
8641;BME280;4358;42.100;25.222;2023-03-20T10:45:32;100327.53;;;18.53;56.75
8641;BME280;4358;42.100;25.222;2023-03-20T10:48:05;100324.44;;;18.67;56.61
8641;BME280;4358;42.100;25.222;2023-03-20T10:50:37;100316.53;;;18.56;56.37
8641;BME280;4358;42.100;25.222;2023-03-20T10:53:19;100304.88;;;18.75;54.66
8641;BME280;4358;42.100;25.222;2023-03-20T10:55:47;100308.28;;;18.77;54.22
8641;BME280;4358;42.100;25.222;2023-03-20T10:58:18;100288.72;;;18.84;52.41
8641;BME280;4358;42.100;25.222;2023-03-20T11:00:47;100300.28;;;19.04;52.62
8641;BME280;4358;42.100;25.222;2023-03-20T11:03:20;100300.50;;;19.20;52.97
8641;BME280;4358;42.100;25.222;2023-03-20T11:05:52;100291.09;;;19.34;52.10
8641;BME280;4358;42.100;25.222;2023-03-20T11:08:23;100287.75;;;19.22;52.29
8641;BME280;4358;42.100;25.222;2023-03-20T11:10:58;100281.16;;;19.07;53.17
8641;BME280;4358;42.100;25.222;2023-03-20T11:13:30;100268.28;;;19.01;54.31
8641;BME280;4358;42.100;25.222;2023-03-20T11:16:07;100263.69;;;19.21;53.25
8641;BME280;4358;42.100;25.222;2023-03-20T11:18:35;100266.94;;;19.42;52.73
8641;BME280;4358;42.100;25.222;2023-03-20T11:21:02;100251.66;;;19.52;51.77
8641;BME280;4358;42.100;25.222;2023-03-20T11:23:33;100249.09;;;19.51;51.77
8641;BME280;4358;42.100;25.222;2023-03-20T11:26:02;100240.22;;;19.68;51.29
8641;BME280;4358;42.100;25.222;2023-03-20T11:28:32;100237.66;;;19.66;51.29
8641;BME280;4358;42.100;25.222;2023-03-20T11:31:02;100235.97;;;19.83;51.11
8641;BME280;4358;42.100;25.222;2023-03-20T11:33:32;100227.22;;;19.99;49.51
8641;BME280;4358;42.100;25.222;2023-03-20T11:36:09;100215.25;;;20.01;49.36
8641;BME280;4358;42.100;25.222;2023-03-20T11:38:42;100218.94;;;20.00;50.56
8641;BME280;4358;42.100;25.222;2023-03-20T11:41:16;100201.53;;;20.12;51.06
8641;BME280;4358;42.100;25.222;2023-03-20T11:43:44;100202.19;;;19.88;52.20
8641;BME280;4358;42.100;25.222;2023-03-20T11:46:12;100192.56;;;19.86;52.63
8641;BME280;4358;42.100;25.222;2023-03-20T11:48:41;100187.75;;;20.15;51.80
8641;BME280;4358;42.100;25.222;2023-03-20T11:51:10;100188.88;;;20.30;51.51
8641;BME280;4358;42.100;25.222;2023-03-20T11:53:55;100180.25;;;20.45;49.77
8641;BME280;4358;42.100;25.222;2023-03-20T11:56:25;100178.84;;;20.66;48.26
8641;BME280;4358;42.100;25.222;2023-03-20T11:58:55;100174.94;;;20.61;47.99
8641;BME280;4358;42.100;25.222;2023-03-20T12:01:25;100174.31;;;20.67;47.41
8641;BME280;4358;42.100;25.222;2023-03-20T12:04:01;100166.03;;;20.68;46.01
8641;BME280;4358;42.100;25.222;2023-03-20T12:06:39;100168.16;;;20.83;45.76
8641;BME280;4358;42.100;25.222;2023-03-20T12:09:22;100162.94;;;20.89;45.68
8641;BME280;4358;42.100;25.222;2023-03-20T12:11:53;100151.25;;;21.14;45.27
8641;BME280;4358;42.100;25.222;2023-03-20T12:14:27;100148.25;;;21.26;45.40
8641;BME280;4358;42.100;25.222;2023-03-20T12:17:09;100139.97;;;21.27;44.95
8641;BME280;4358;42.100;25.222;2023-03-20T12:19:39;100138.47;;;21.33;45.05
8641;BME280;4358;42.100;25.222;2023-03-20T12:22:15;100140.88;;;21.44;42.30
8641;BME280;4358;42.100;25.222;2023-03-20T12:24:51;100137.69;;;21.65;42.36
8641;BME280;4358;42.100;25.222;2023-03-20T12:27:23;100129.41;;;21.82;42.29
8641;BME280;4358;42.100;25.222;2023-03-20T12:29:59;100126.03;;;21.80;40.57
8641;BME280;4358;42.100;25.222;2023-03-20T12:32:31;100126.00;;;21.88;38.94
8641;BME280;4358;42.100;25.222;2023-03-20T12:35:04;100117.28;;;21.94;39.04
8641;BME280;4358;42.100;25.222;2023-03-20T12:37:36;100109.34;;;22.01;38.76
8641;BME280;4358;42.100;25.222;2023-03-20T12:40:10;100111.88;;;21.94;38.56
8641;BME280;4358;42.100;25.222;2023-03-20T12:42:47;100099.69;;;21.90;38.80
8641;BME280;4358;42.100;25.222;2023-03-20T12:45:22;100100.53;;;22.07;38.52
8641;BME280;4358;42.100;25.222;2023-03-20T12:48:05;100098.66;;;22.16;38.05
8641;BME280;4358;42.100;25.222;2023-03-20T12:50:43;100104.41;;;22.13;37.58
8641;BME280;4358;42.100;25.222;2023-03-20T12:53:27;100092.91;;;22.19;37.02
8641;BME280;4358;42.100;25.222;2023-03-20T12:56:07;100087.50;;;22.19;36.36
8641;BME280;4358;42.100;25.222;2023-03-20T12:58:43;100095.56;;;22.35;36.20
8641;BME280;4358;42.100;25.222;2023-03-20T13:01:17;100093.53;;;22.45;36.33
8641;BME280;4358;42.100;25.222;2023-03-20T13:04:05;100088.38;;;22.58;36.18
8641;BME280;4358;42.100;25.222;2023-03-20T13:06:50;100079.41;;;22.66;36.98
8641;BME280;4358;42.100;25.222;2023-03-20T13:09:40;100077.91;;;22.71;37.24
8641;BME280;4358;42.100;25.222;2023-03-20T13:12:17;100074.44;;;22.86;36.79
8641;BME280;4358;42.100;25.222;2023-03-20T13:14:52;100077.31;;;22.84;36.01
8641;BME280;4358;42.100;25.222;2023-03-20T13:17:25;100071.75;;;22.77;36.10
8641;BME280;4358;42.100;25.222;2023-03-20T13:20:12;100073.59;;;22.85;36.24
8641;BME280;4358;42.100;25.222;2023-03-20T13:22:51;100066.88;;;23.04;35.12